createdAt,value
2019-03-13T00:04:27.370Z,2.60
2019-03-13T00:09:31.195Z,3.53
2019-03-13T00:14:32.826Z,2.77
2019-03-13T00:19:39.039Z,2.63
2019-03-13T00:24:42.788Z,3.13
2019-03-13T00:29:44.483Z,3.30
2019-03-13T00:34:46.143Z,2.93
2019-03-13T00:39:47.883Z,2.83
2019-03-13T00:44:49.483Z,2.80
2019-03-13T00:49:51.165Z,3.07
2019-03-13T00:54:52.766Z,2.57
2019-03-13T00:59:54.395Z,3.10
2019-03-13T01:05:11.608Z,3.17
2019-03-13T01:10:13.699Z,3.00
2019-03-13T01:15:17.418Z,3.07
2019-03-13T01:20:21.190Z,2.73
2019-03-13T01:25:22.963Z,2.93
2019-03-13T01:30:29.427Z,3.47
2019-03-13T01:35:43.583Z,4.00
2019-03-13T01:40:45.218Z,3.10
2019-03-13T01:45:46.824Z,3.63
2019-03-13T01:50:49.706Z,4.00
2019-03-13T01:55:51.365Z,4.00
2019-03-13T02:00:52.999Z,2.87
2019-03-13T02:05:58.138Z,3.27
2019-03-13T02:10:59.817Z,3.57
2019-03-13T02:16:01.447Z,3.73
2019-03-13T02:21:08.064Z,3.10
2019-03-13T02:26:09.800Z,4.03
2019-03-13T02:31:13.423Z,3.90
2019-03-13T02:36:16.510Z,3.57
2019-03-13T02:41:18.170Z,3.80
2019-03-13T02:46:19.827Z,4.43
2019-03-13T02:51:21.482Z,3.63
2019-03-13T02:56:24.885Z,4.20
2019-03-13T03:01:44.680Z,4.33
2019-03-13T03:06:46.308Z,4.03
2019-03-13T03:11:51.079Z,4.17
2019-03-13T03:16:52.712Z,5.77
2019-03-13T03:21:54.398Z,3.83
2019-03-13T03:26:56.357Z,4.67
2019-03-13T03:31:58.072Z,4.90
2019-03-13T03:36:59.837Z,4.30
2019-03-13T03:42:03.965Z,4.20
2019-03-13T03:47:08.493Z,4.60
2019-03-13T03:52:10.081Z,4.33
2019-03-13T03:57:14.029Z,5.13
2019-03-13T04:02:15.987Z,4.10
2019-03-13T04:07:17.681Z,4.73
2019-03-13T04:12:19.471Z,4.77
2019-03-13T04:17:22.682Z,5.00
2019-03-13T04:22:25.348Z,4.60
2019-03-13T04:27:29.490Z,4.83
2019-03-13T04:32:32.979Z,4.70
2019-03-13T04:37:34.592Z,5.43
2019-03-13T04:42:36.225Z,5.27
2019-03-13T04:47:37.918Z,4.87
2019-03-13T04:52:39.622Z,5.00
2019-03-13T04:57:42.962Z,5.40
2019-03-13T05:02:47.738Z,4.10
2019-03-13T05:07:51.077Z,6.67
2019-03-13T05:12:52.763Z,5.27
2019-03-13T05:17:54.529Z,5.80
2019-03-13T05:22:56.154Z,4.70
2019-03-13T05:27:59.744Z,4.87
2019-03-13T05:33:01.374Z,5.90
2019-03-13T05:38:05.301Z,4.40
2019-03-13T05:43:11.459Z,5.37
2019-03-13T05:48:15.545Z,5.83
2019-03-13T05:53:19.692Z,5.57
2019-03-13T05:58:21.275Z,5.13
2019-03-13T06:03:22.880Z,5.63
2019-03-13T06:08:24.506Z,4.50
2019-03-13T06:13:28.152Z,4.73
2019-03-13T06:18:30.589Z,4.37
2019-03-13T06:23:32.986Z,6.03
2019-03-13T06:28:37.383Z,5.00
2019-03-13T06:33:39.134Z,5.20
2019-03-13T06:38:41.612Z,5.93
2019-03-13T06:43:43.269Z,5.63
2019-03-13T06:48:46.111Z,5.47
2019-03-13T06:53:49.596Z,5.40
2019-03-13T06:59:00.682Z,4.87
2019-03-13T07:04:21.138Z,5.53
2019-03-13T07:09:47.639Z,5.27
2019-03-13T07:15:01.028Z,5.33
2019-03-13T07:20:13.472Z,5.13
2019-03-13T07:25:22.273Z,4.63
2019-03-13T07:30:42.167Z,5.07
2019-03-13T07:35:53.419Z,4.90
2019-03-13T07:41:12.331Z,5.03
2019-03-13T07:46:31.799Z,5.03
2019-03-13T07:51:55.657Z,5.03
2019-03-13T07:57:13.468Z,4.53
2019-03-13T08:02:34.626Z,4.70
2019-03-13T08:07:48.050Z,6.50
2019-03-13T08:13:10.319Z,6.37
2019-03-13T08:18:31.535Z,4.87
2019-03-13T08:23:44.662Z,5.60
2019-03-13T08:29:08.306Z,5.30
2019-03-13T08:34:37.765Z,5.60
2019-03-13T08:39:54.414Z,5.57
2019-03-13T08:45:23.394Z,5.50
2019-03-13T08:50:51.102Z,5.93
2019-03-13T08:55:59.938Z,5.50
2019-03-13T09:01:24.218Z,5.60
2019-03-13T09:06:31.856Z,5.63
2019-03-13T09:11:52.957Z,6.03
2019-03-13T09:17:19.831Z,4.83
2019-03-13T09:22:42.378Z,5.33
2019-03-13T09:28:03.491Z,5.93
2019-03-13T09:33:19.968Z,4.73
2019-03-13T09:38:30.758Z,5.40
2019-03-13T09:43:47.603Z,5.17
2019-03-13T09:49:23.411Z,5.53
2019-03-13T09:54:53.507Z,5.30
2019-03-13T10:00:17.363Z,4.90
2019-03-13T10:05:36.576Z,5.00
2019-03-13T10:10:45.933Z,4.77
2019-03-13T10:16:00.493Z,5.20
2019-03-13T10:21:13.429Z,4.43
2019-03-13T10:26:37.329Z,5.17
2019-03-13T10:32:13.189Z,4.80
2019-03-13T10:37:37.070Z,5.33
2019-03-13T10:43:00.939Z,4.83
2019-03-13T10:48:10.178Z,4.73
2019-03-13T10:53:37.509Z,4.33
2019-03-13T10:58:58.613Z,5.47
2019-03-13T11:04:07.448Z,5.50
2019-03-13T11:09:17.391Z,5.10
2019-03-13T11:14:42.116Z,5.87
2019-03-13T11:19:50.922Z,4.63
2019-03-13T11:25:00.496Z,5.30
2019-03-13T11:30:20.837Z,5.60
2019-03-13T11:35:46.530Z,5.03
2019-03-13T11:41:18.609Z,5.43
2019-03-13T11:46:42.586Z,4.80
2019-03-13T11:52:07.965Z,5.60
2019-03-13T11:57:31.663Z,5.23
2019-03-13T12:02:51.523Z,4.60
2019-03-13T12:08:15.781Z,5.47
2019-03-13T12:13:33.736Z,4.70
2019-03-13T12:18:57.081Z,4.70
2019-03-13T12:24:16.753Z,4.80
2019-03-13T12:29:29.318Z,4.27
2019-03-13T12:34:58.273Z,4.83
2019-03-13T12:40:22.294Z,5.10
2019-03-13T12:45:43.553Z,5.27
2019-03-13T12:50:59.570Z,4.60
2019-03-13T12:56:07.682Z,4.87
2019-03-13T13:01:23.000Z,4.80
2019-03-13T13:06:44.254Z,4.90
2019-03-13T13:12:05.383Z,5.70
2019-03-13T13:17:25.236Z,5.47
2019-03-13T13:22:31.227Z,4.77
2019-03-13T13:27:32.929Z,4.60
2019-03-13T13:32:34.621Z,4.80
2019-03-13T13:37:37.457Z,4.53
2019-03-13T13:42:39.062Z,3.60
2019-03-13T13:47:46.796Z,4.03
2019-03-13T13:52:48.498Z,4.77
2019-03-13T13:57:50.161Z,4.37
2019-03-13T14:02:54.731Z,3.43
2019-03-13T14:07:57.470Z,3.00
2019-03-13T14:13:00.867Z,4.13
2019-03-13T14:18:02.473Z,4.70
2019-03-13T14:23:04.339Z,4.40
2019-03-13T14:28:06.087Z,4.03
2019-03-13T14:33:07.732Z,4.30
2019-03-13T14:38:09.505Z,4.63
2019-03-13T14:43:11.094Z,3.67
2019-03-13T14:48:13.552Z,4.60
2019-03-13T14:53:15.327Z,4.17
2019-03-13T14:58:18.895Z,4.63
2019-03-13T15:03:20.615Z,4.80
2019-03-13T15:08:22.275Z,4.40
2019-03-13T15:13:24.121Z,3.90
2019-03-13T15:18:27.796Z,5.07
2019-03-13T15:23:29.489Z,5.87
2019-03-13T15:28:31.078Z,4.60
2019-03-13T15:33:32.754Z,4.83
2019-03-13T15:38:34.453Z,5.40
2019-03-13T15:43:38.942Z,4.80
2019-03-13T15:48:40.521Z,4.73
2019-03-13T15:53:42.165Z,4.83
2019-03-13T15:58:46.722Z,5.07
2019-03-13T16:03:49.814Z,4.67
2019-03-13T16:08:51.502Z,5.07
2019-03-13T16:13:54.549Z,4.67
2019-03-13T16:18:56.316Z,4.80
2019-03-13T16:23:57.929Z,4.90
2019-03-13T16:28:59.590Z,5.33
2019-03-13T16:34:01.227Z,4.80
2019-03-13T16:39:04.798Z,5.23
2019-03-13T16:44:06.386Z,5.07
2019-03-13T16:49:08.067Z,5.23
2019-03-13T16:54:09.687Z,4.43
2019-03-13T16:59:11.294Z,4.73
2019-03-13T17:04:13.106Z,5.60
2019-03-13T17:09:14.753Z,4.53
2019-03-13T17:14:21.136Z,5.53
2019-03-13T17:19:22.751Z,5.10
2019-03-13T17:24:25.923Z,5.12
2019-03-13T17:29:27.631Z,3.60
2019-03-13T17:34:30.491Z,4.07
2019-03-13T17:39:34.239Z,4.97
2019-03-13T17:44:35.826Z,4.27
2019-03-13T17:49:37.677Z,4.10
2019-03-13T17:54:40.002Z,4.23
2019-03-13T17:59:43.678Z,4.53
2019-03-13T18:04:46.258Z,4.70
2019-03-13T18:09:47.952Z,4.13
2019-03-13T18:14:52.813Z,4.60
2019-03-13T18:19:54.802Z,5.00
2019-03-13T18:24:56.492Z,4.23
2019-03-13T18:30:00.483Z,4.13
2019-03-13T18:35:03.581Z,4.27
2019-03-13T18:40:05.198Z,4.13
2019-03-13T18:45:10.311Z,4.70
2019-03-13T18:50:12.040Z,4.63
2019-03-13T18:55:15.560Z,4.47
2019-03-13T19:00:23.383Z,4.27
2019-03-13T19:05:28.222Z,4.83
2019-03-13T19:10:29.850Z,4.00
2019-03-13T19:15:34.408Z,5.20
2019-03-13T19:20:36.104Z,4.77
2019-03-13T19:25:39.395Z,4.97
2019-03-13T19:30:43.135Z,4.67
2019-03-13T19:35:44.806Z,4.70
2019-03-13T19:40:49.334Z,4.30
2019-03-13T19:45:50.929Z,4.77
2019-03-13T19:50:52.612Z,4.10
2019-03-13T19:55:55.377Z,4.40
2019-03-13T20:00:57.014Z,3.90
2019-03-13T20:05:58.649Z,3.63
2019-03-13T20:11:04.375Z,3.63
2019-03-13T20:16:10.573Z,3.53
2019-03-13T20:21:14.258Z,3.80
2019-03-13T20:26:17.183Z,4.50
2019-03-13T20:31:21.727Z,4.37
2019-03-13T20:36:25.624Z,4.43
2019-03-13T20:41:34.574Z,4.27
2019-03-13T20:46:37.551Z,4.33
2019-03-13T20:51:40.440Z,4.97
2019-03-13T20:56:42.023Z,4.60
2019-03-13T21:01:43.614Z,4.57
2019-03-13T21:06:48.028Z,5.07
2019-03-13T21:11:52.015Z,5.30
2019-03-13T21:16:55.025Z,4.53
2019-03-13T21:21:57.998Z,4.27
2019-03-13T21:27:02.356Z,5.37
2019-03-13T21:32:04.046Z,5.50
2019-03-13T21:37:05.671Z,5.23
2019-03-13T21:42:07.328Z,4.77
2019-03-13T21:47:08.990Z,4.87
2019-03-13T21:52:10.667Z,6.37
2019-03-13T21:57:14.287Z,5.13
2019-03-13T22:02:15.906Z,6.47
2019-03-13T22:07:20.413Z,5.70
2019-03-13T22:12:22.137Z,6.13
2019-03-13T22:17:23.767Z,6.33
2019-03-13T22:22:26.477Z,6.03
2019-03-13T22:27:28.434Z,5.90
2019-03-13T22:32:33.245Z,5.73
2019-03-13T22:37:36.510Z,5.67
2019-03-13T22:42:38.408Z,7.30
2019-03-13T22:47:43.288Z,5.33
2019-03-13T22:52:46.525Z,4.83
2019-03-13T22:57:48.162Z,5.40
2019-03-13T23:02:55.849Z,4.87
2019-03-13T23:07:57.446Z,5.33
2019-03-13T23:12:59.077Z,5.40
2019-03-13T23:18:00.775Z,5.90
2019-03-13T23:23:02.677Z,4.20
2019-03-13T23:28:04.723Z,3.83
2019-03-13T23:33:09.516Z,4.33
2019-03-13T23:38:13.072Z,4.37
2019-03-13T23:43:14.698Z,4.90
2019-03-13T23:48:16.286Z,4.03
2019-03-13T23:53:20.213Z,4.80
2019-03-13T23:58:21.783Z,4.67
